Time;durP1;ratioP1;P1;durP2;ratioP2;P2;SDS_P1;SDS_P2;PMS_P1;PMS_P2;Temp;Humidity;BMP_temperature;BMP_pressure;BME280_temperature;BME280_humidity;BME280_pressure;Samples;Min_cycle;Max_cycle;Signal;HPM_P1;HPM_P2
2022/12/08 00:02:47;;;;;;;20.20;7.43;;;;;;;;;;10515583;28;20047;-73
2022/12/08 00:13:25;;;;;;;22.15;7.75;;;;;;;;;;10499737;28;20157;-76
2022/12/08 00:18:28;;;;;;;21.60;7.53;;;;;;;;;;10487983;28;20367;-75
2022/12/08 00:23:31;;;;;;;19.85;7.07;;;;;;;;;;10502086;28;20405;-75
2022/12/08 00:28:35;;;;;;;21.38;7.28;;;;;;;;;;10481295;28;20140;-75
2022/12/08 00:33:38;;;;;;;18.40;6.90;;;;;;;;;;10512416;28;20039;-76
2022/12/08 00:38:43;;;;;;;21.67;7.40;;;;;;;;;;10513458;28;20035;-75
2022/12/08 00:43:48;;;;;;;22.88;7.18;;;;;;;;;;10511023;28;20405;-75
2022/12/08 00:48:52;;;;;;;16.38;6.20;;;;;;;;;;10514244;28;20058;-74
2022/12/08 00:53:54;;;;;;;16.83;5.72;;;;;;;;;;10511088;28;20051;-75
2022/12/08 00:58:59;;;;;;;17.10;6.53;;;;;;;;;;10499857;28;20040;-75
2022/12/08 01:04:03;;;;;;;16.42;5.97;;;;;;;;;;10513985;28;20044;-75
2022/12/08 01:09:07;;;;;;;14.95;5.15;;;;;;;;;;10512138;28;20055;-77
2022/12/08 01:14:12;;;;;;;15.10;6.40;;;;;;;;;;10519686;28;20048;-76
2022/12/08 01:19:16;;;;;;;21.17;7.60;;;;;;;;;;10514441;28;20429;-76
2022/12/08 01:24:19;;;;;;;18.67;6.77;;;;;;;;;;10494943;28;20059;-74
2022/12/08 01:29:26;;;;;;;14.30;4.25;;;;;;;;;;10514916;28;20077;-76
2022/12/08 01:34:30;;;;;;;12.10;3.85;;;;;;;;;;10515379;28;20052;-74
2022/12/08 01:39:34;;;;;;;15.35;4.07;;;;;;;;;;10508113;28;20043;-75
2022/12/08 01:44:54;;;;;;;17.35;6.70;;;;;;;;;;10511869;28;20486;-75
2022/12/08 01:49:56;;;;;;;15.18;5.60;;;;;;;;;;10506475;28;20138;-75
2022/12/08 01:55:03;;;;;;;19.05;5.97;;;;;;;;;;10501518;28;20035;-75
2022/12/08 02:00:09;;;;;;;15.02;5.32;;;;;;;;;;10508421;28;20497;-75
2022/12/08 02:05:13;;;;;;;17.40;6.32;;;;;;;;;;10508156;28;20059;-75
2022/12/08 02:10:18;;;;;;;23.73;7.03;;;;;;;;;;10485217;28;20042;-76
2022/12/08 02:15:31;;;;;;;19.42;7.20;;;;;;;;;;10499459;28;20402;-76
2022/12/08 02:20:48;;;;;;;21.60;6.57;;;;;;;;;;10501868;28;20485;-75
2022/12/08 02:26:09;;;;;;;18.98;6.32;;;;;;;;;;10507264;28;20411;-75
2022/12/08 02:31:20;;;;;;;18.85;5.43;;;;;;;;;;10506791;28;20044;-75
2022/12/08 02:36:26;;;;;;;15.65;4.00;;;;;;;;;;10511567;28;20048;-75
2022/12/08 02:41:32;;;;;;;2.60;1.13;;;;;;;;;;10484073;28;20052;-75
2022/12/08 02:46:38;;;;;;;20.00;7.13;;;;;;;;;;10513062;28;20044;-75
2022/12/08 02:51:45;;;;;;;20.77;7.15;;;;;;;;;;10495278;28;20055;-76
2022/12/08 02:56:59;;;;;;;19.77;5.88;;;;;;;;;;10521634;28;20089;-75
2022/12/08 03:02:09;;;;;;;18.80;7.13;;;;;;;;;;10522866;28;20042;-76
2022/12/08 03:07:18;;;;;;;21.75;7.03;;;;;;;;;;10494249;28;20043;-76
2022/12/08 03:12:26;;;;;;;19.15;6.90;;;;;;;;;;10504234;28;20630;-75
2022/12/08 03:17:31;;;;;;;16.73;6.22;;;;;;;;;;10496409;28;20071;-76
2022/12/08 03:22:33;;;;;;;;;;;;;;;;;;10521649;28;20040;-75
2022/12/08 03:27:43;;;;;;;21.50;7.13;;;;;;;;;;10514045;28;19930;-74
2022/12/08 03:32:50;;;;;;;22.97;6.43;;;;;;;;;;10512271;28;20469;-75
2022/12/08 03:38:01;;;;;;;19.87;5.93;;;;;;;;;;10505615;28;20046;-75
2022/12/08 03:43:06;;;;;;;20.00;6.97;;;;;;;;;;10517624;28;20039;-76
2022/12/08 03:48:08;;;;;;;18.25;6.32;;;;;;;;;;10516740;28;20051;-75
2022/12/08 03:53:11;;;;;;;21.97;7.43;;;;;;;;;;10496254;28;20513;-75
2022/12/08 03:58:16;;;;;;;22.73;6.63;;;;;;;;;;10509964;28;20128;-75
2022/12/08 04:03:19;;;;;;;24.90;7.07;;;;;;;;;;10512355;28;20064;-76
2022/12/08 04:08:22;;;;;;;22.33;7.10;;;;;;;;;;10518770;28;20606;-75
2022/12/08 04:13:27;;;;;;;24.50;7.53;;;;;;;;;;10495006;28;20111;-75
2022/12/08 04:18:30;;;;;;;26.70;7.40;;;;;;;;;;10499517;28;20039;-74
2022/12/08 04:23:33;;;;;;;23.77;7.60;;;;;;;;;;10515952;28;20044;-74
2022/12/08 04:28:37;;;;;;;24.47;7.93;;;;;;;;;;10509044;28;20106;-75
2022/12/08 04:33:41;;;;;;;21.07;6.93;;;;;;;;;;10510288;28;20047;-76
2022/12/08 04:38:44;;;;;;;20.67;7.00;;;;;;;;;;10506201;28;20510;-75
2022/12/08 04:43:48;;;;;;;24.27;7.63;;;;;;;;;;10511805;28;20131;-75
2022/12/08 04:48:51;;;;;;;;;;;;;;;;;;10521264;28;20032;-75
2022/12/08 04:53:55;;;;;;;21.23;7.40;;;;;;;;;;10516497;28;19986;-75
2022/12/08 04:59:00;;;;;;;20.55;6.90;;;;;;;;;;10513521;28;20502;-75
2022/12/08 05:04:02;;;;;;;20.70;8.03;;;;;;;;;;10511859;28;20043;-77
2022/12/08 05:09:06;;;;;;;27.85;8.00;;;;;;;;;;10506225;28;20028;-77
2022/12/08 05:14:12;;;;;;;23.35;7.25;;;;;;;;;;10515816;28;20055;-75
2022/12/08 05:19:15;;;;;;;25.63;7.57;;;;;;;;;;10512323;28;20043;-77
2022/12/08 05:24:19;;;;;;;22.30;8.25;;;;;;;;;;10494082;28;20051;-76
2022/12/08 05:29:23;;;;;;;27.23;9.05;;;;;;;;;;10512911;28;20446;-75
2022/12/08 05:34:26;;;;;;;22.13;7.15;;;;;;;;;;10513772;28;20040;-76
2022/12/08 05:39:29;;;;;;;21.03;7.13;;;;;;;;;;10496583;28;20067;-76
2022/12/08 05:44:34;;;;;;;19.83;6.80;;;;;;;;;;10494443;28;20397;-76
2022/12/08 05:49:36;;;;;;;21.98;7.85;;;;;;;;;;10511448;28;20037;-75
2022/12/08 05:54:39;;;;;;;25.25;9.05;;;;;;;;;;10508964;28;20052;-76
2022/12/08 05:59:44;;;;;;;23.08;7.57;;;;;;;;;;10491871;28;20036;-76
2022/12/08 06:04:48;;;;;;;26.08;8.48;;;;;;;;;;10496983;28;20067;-74
2022/12/08 06:09:51;;;;;;;26.50;8.68;;;;;;;;;;10513755;28;20074;-75
2022/12/08 06:14:56;;;;;;;23.15;7.63;;;;;;;;;;10497845;28;20459;-75
2022/12/08 06:19:59;;;;;;;22.33;7.47;;;;;;;;;;10498992;28;20041;-75
2022/12/08 06:25:03;;;;;;;23.90;8.07;;;;;;;;;;10518971;28;20416;-75
2022/12/08 06:30:13;;;;;;;23.77;8.10;;;;;;;;;;10514168;28;20294;-75
2022/12/08 06:35:16;;;;;;;24.60;9.07;;;;;;;;;;10519112;28;20047;-75
2022/12/08 06:40:21;;;;;;;22.42;7.25;;;;;;;;;;10505772;28;20460;-75
2022/12/08 06:45:25;;;;;;;23.13;8.63;;;;;;;;;;10503047;28;20051;-76
2022/12/08 06:50:31;;;;;;;26.73;8.73;;;;;;;;;;10520800;28;20068;-76
2022/12/08 06:55:34;;;;;;;28.48;7.75;;;;;;;;;;10525186;28;20048;-76
2022/12/08 07:01:03;;;;;;;28.52;8.15;;;;;;;;;;10514339;28;20488;-75
2022/12/08 07:06:07;;;;;;;15.70;5.63;;;;;;;;;;10526932;28;20488;-76
2022/12/08 07:11:11;;;;;;;20.60;7.30;;;;;;;;;;10521652;28;20028;-77
2022/12/08 07:16:24;;;;;;;27.83;8.18;;;;;;;;;;10517911;28;20033;-76
2022/12/08 07:21:27;;;;;;;26.30;8.30;;;;;;;;;;10511808;28;20047;-76
2022/12/08 07:26:30;;;;;;;21.50;7.10;;;;;;;;;;10504521;28;20036;-75
2022/12/08 07:31:34;;;;;;;17.40;6.60;;;;;;;;;;10518734;28;20481;-74
2022/12/08 07:36:37;;;;;;;;;;;;;;;;;;10506474;28;20135;-75
2022/12/08 07:41:40;;;;;;;16.85;6.32;;;;;;;;;;10519113;28;19963;-76
2022/12/08 07:46:46;;;;;;;18.40;6.90;;;;;;;;;;10517179;28;20451;-75
2022/12/08 07:51:50;;;;;;;23.08;8.15;;;;;;;;;;10494977;28;20036;-75
2022/12/08 07:56:53;;;;;;;18.20;7.43;;;;;;;;;;10513827;28;20521;-75
2022/12/08 08:01:57;;;;;;;17.48;6.45;;;;;;;;;;10500267;28;20398;-76
2022/12/08 08:07:20;;;;;;;17.42;6.75;;;;;;;;;;10514017;28;20040;-77
2022/12/08 08:12:23;;;;;;;21.83;8.80;;;;;;;;;;10504826;28;20048;-75
2022/12/08 08:17:36;;;;;;;21.50;7.88;;;;;;;;;;10494851;28;20049;-75
2022/12/08 08:22:39;;;;;;;18.63;7.15;;;;;;;;;;10513951;28;20040;-75
2022/12/08 08:27:43;;;;;;;22.65;9.60;;;;;;;;;;10513005;28;20047;-76
2022/12/08 08:32:47;;;;;;;27.52;9.63;;;;;;;;;;10518341;28;20484;-76
2022/12/08 08:37:54;;;;;;;20.52;8.23;;;;;;;;;;10511905;28;20136;-74
2022/12/08 08:43:00;;;;;;;19.75;7.28;;;;;;;;;;10512362;28;20043;-74
2022/12/08 08:48:04;;;;;;;22.23;6.88;;;;;;;;;;10516526;28;20036;-74
2022/12/08 08:53:07;;;;;;;18.08;7.80;;;;;;;;;;10495372;28;20476;-74
2022/12/08 08:58:10;;;;;;;18.98;7.95;;;;;;;;;;10499790;28;20043;-76
2022/12/08 09:03:14;;;;;;;18.67;8.55;;;;;;;;;;10500720;28;20041;-75
2022/12/08 09:08:21;;;;;;;17.55;7.00;;;;;;;;;;10513676;28;20057;-76
2022/12/08 09:13:25;;;;;;;17.05;8.32;;;;;;;;;;10496209;28;20039;-75
2022/12/08 09:18:28;;;;;;;;;;;;;;;;;;10492477;28;20639;-76
2022/12/08 09:23:32;;;;;;;20.98;8.35;;;;;;;;;;10513492;28;19924;-75
2022/12/08 09:28:37;;;;;;;24.40;9.55;;;;;;;;;;10509186;28;20106;-76
2022/12/08 09:33:40;;;;;;;26.27;8.95;;;;;;;;;;10501856;28;20055;-76
2022/12/08 09:38:46;;;;;;;23.77;9.27;;;;;;;;;;10488627;28;20047;-77
2022/12/08 09:43:57;;;;;;;21.60;9.20;;;;;;;;;;10505315;28;20029;-77
2022/12/08 09:49:00;;;;;;;22.25;9.70;;;;;;;;;;10513072;28;20051;-75
2022/12/08 09:54:11;;;;;;;19.90;8.70;;;;;;;;;;10508145;28;20044;-75
2022/12/08 09:59:21;;;;;;;25.45;8.95;;;;;;;;;;10496357;28;20214;-76
2022/12/08 10:04:26;;;;;;;22.90;8.88;;;;;;;;;;10482351;28;20093;-76
2022/12/08 10:09:32;;;;;;;21.17;9.52;;;;;;;;;;10509828;28;20058;-75
2022/12/08 10:14:41;;;;;;;21.85;9.27;;;;;;;;;;10514820;28;20127;-76
2022/12/08 10:19:46;;;;;;;24.25;10.07;;;;;;;;;;10487171;28;20035;-74
2022/12/08 10:25:05;;;;;;;26.65;9.60;;;;;;;;;;10507009;28;20040;-75
2022/12/08 10:30:13;;;;;;;22.70;9.48;;;;;;;;;;10507448;28;20044;-76
2022/12/08 10:35:18;;;;;;;21.38;9.00;;;;;;;;;;10508147;28;20034;-76
2022/12/08 10:40:22;;;;;;;23.58;8.85;;;;;;;;;;10507410;28;20497;-75
2022/12/08 10:45:28;;;;;;;23.63;9.95;;;;;;;;;;10507968;28;20032;-76
2022/12/08 10:50:33;;;;;;;26.20;11.38;;;;;;;;;;10504759;28;20068;-76
2022/12/08 10:55:44;;;;;;;25.33;8.82;;;;;;;;;;10510288;28;20032;-77
2022/12/08 11:00:47;;;;;;;22.80;9.23;;;;;;;;;;10502940;28;20029;-76
2022/12/08 11:05:50;;;;;;;28.30;9.50;;;;;;;;;;10509029;28;20045;-74
2022/12/08 11:10:54;;;;;;;29.67;10.80;;;;;;;;;;10484993;28;20180;-75
2022/12/08 11:15:58;;;;;;;31.38;11.55;;;;;;;;;;10497721;28;20042;-76
2022/12/08 11:21:08;;;;;;;30.25;11.25;;;;;;;;;;10522943;28;20040;-77
2022/12/08 11:26:17;;;;;;;22.58;9.15;;;;;;;;;;10519906;28;20047;-76
2022/12/08 11:31:25;;;;;;;24.92;9.20;;;;;;;;;;10515950;28;20046;-74
2022/12/08 11:36:30;;;;;;;21.45;8.90;;;;;;;;;;10515245;28;20044;-76
2022/12/08 11:41:47;;;;;;;29.13;10.80;;;;;;;;;;10522079;28;20131;-76
2022/12/08 11:46:52;;;;;;;21.15;8.98;;;;;;;;;;10501212;28;20032;-74
2022/12/08 11:51:59;;;;;;;26.98;10.05;;;;;;;;;;10495512;28;20036;-75
2022/12/08 11:57:05;;;;;;;24.92;10.10;;;;;;;;;;10517663;28;20039;-74
2022/12/08 12:02:13;;;;;;;21.40;8.95;;;;;;;;;;10499761;28;20495;-75
2022/12/08 12:07:40;;;;;;;18.38;8.20;;;;;;;;;;10515817;28;20036;-74
2022/12/08 12:12:57;;;;;;;23.75;10.27;;;;;;;;;;10489656;28;20040;-75
2022/12/08 12:18:04;;;;;;;22.33;8.88;;;;;;;;;;10490244;28;20050;-76
2022/12/08 12:23:10;;;;;;;23.48;9.25;;;;;;;;;;10508415;28;20059;-75
2022/12/08 12:28:16;;;;;;;22.23;9.95;;;;;;;;;;10516418;28;20515;-76
2022/12/08 12:33:23;;;;;;;22.83;9.15;;;;;;;;;;10514817;28;20204;-76
2022/12/08 12:44:10;;;;;;;21.33;8.02;;;;;;;;;;10516071;28;20036;-77
2022/12/08 12:49:31;;;;;;;25.15;9.38;;;;;;;;;;10498391;28;20051;-75
2022/12/08 12:54:34;;;;;;;22.42;7.85;;;;;;;;;;10510973;28;20032;-76
2022/12/08 12:59:44;;;;;;;16.90;7.07;;;;;;;;;;10512902;28;20036;-74
2022/12/08 13:04:57;;;;;;;20.17;7.40;;;;;;;;;;10516383;28;20032;-75
2022/12/08 13:10:02;;;;;;;22.52;8.18;;;;;;;;;;10506463;28;20063;-75
2022/12/08 13:15:15;;;;;;;19.35;7.80;;;;;;;;;;10486805;28;20032;-77
2022/12/08 13:20:20;;;;;;;22.42;7.88;;;;;;;;;;10512087;28;20188;-76
2022/12/08 13:25:43;;;;;;;21.17;8.80;;;;;;;;;;10494777;28;20040;-75
2022/12/08 13:30:49;;;;;;;23.35;8.27;;;;;;;;;;10505777;28;20063;-76
2022/12/08 13:36:01;;;;;;;18.75;6.32;;;;;;;;;;10476750;28;20511;-75
2022/12/08 13:41:08;;;;;;;16.95;6.93;;;;;;;;;;10511811;28;20040;-75
2022/12/08 13:46:12;;;;;;;19.77;7.47;;;;;;;;;;10498902;28;20489;-76
2022/12/08 13:51:39;;;;;;;21.38;6.85;;;;;;;;;;10513255;28;20039;-76
2022/12/08 13:57:06;;;;;;;17.05;7.00;;;;;;;;;;10509850;28;20135;-77
2022/12/08 14:02:17;;;;;;;16.45;6.65;;;;;;;;;;10491726;28;20032;-78
2022/12/08 14:07:21;;;;;;;19.20;6.93;;;;;;;;;;10491155;28;20040;-76
2022/12/08 14:12:25;;;;;;;20.40;6.82;;;;;;;;;;10509595;28;20142;-74
2022/12/08 14:17:35;;;;;;;17.55;6.57;;;;;;;;;;10506972;28;20041;-76
2022/12/08 14:22:38;;;;;;;19.85;6.78;;;;;;;;;;10508873;28;20422;-75
2022/12/08 14:27:41;;;;;;;23.40;7.55;;;;;;;;;;10510260;28;20043;-75
2022/12/08 14:32:47;;;;;;;22.52;8.40;;;;;;;;;;10493393;28;20036;-76
2022/12/08 14:37:51;;;;;;;25.75;8.23;;;;;;;;;;10515311;28;20094;-75
2022/12/08 14:43:05;;;;;;;22.17;7.75;;;;;;;;;;10488369;28;20512;-75
2022/12/08 14:48:25;;;;;;;21.85;7.45;;;;;;;;;;10513709;28;20059;-75
2022/12/08 14:53:35;;;;;;;20.80;8.00;;;;;;;;;;10522535;28;20155;-75
2022/12/08 14:58:38;;;;;;;19.95;7.72;;;;;;;;;;10516267;28;20129;-76
2022/12/08 15:03:41;;;;;;;23.65;7.97;;;;;;;;;;10491833;28;20498;-75
2022/12/08 15:08:58;;;;;;;23.70;9.13;;;;;;;;;;10496906;28;20051;-75
2022/12/08 15:14:03;;;;;;;25.48;8.98;;;;;;;;;;10517346;28;20463;-75
2022/12/08 15:19:17;;;;;;;17.20;6.72;;;;;;;;;;10491184;28;20036;-75
2022/12/08 15:24:23;;;;;;;23.45;8.25;;;;;;;;;;10516746;28;20574;-77
2022/12/08 15:29:27;;;;;;;33.13;12.70;;;;;;;;;;10519095;28;20408;-76
2022/12/08 15:34:32;;;;;;;22.42;9.52;;;;;;;;;;10515217;28;20075;-77
2022/12/08 15:39:36;;;;;;;26.73;9.57;;;;;;;;;;10513721;28;20056;-77
2022/12/08 15:44:40;;;;;;;21.77;8.63;;;;;;;;;;10514173;28;20056;-77
2022/12/08 15:49:43;;;;;;;23.88;8.63;;;;;;;;;;10499502;28;20051;-74
2022/12/08 15:54:50;;;;;;;20.15;7.18;;;;;;;;;;10492027;28;20039;-75
2022/12/08 15:59:53;;;;;;;25.23;8.55;;;;;;;;;;10505764;28;20059;-75
2022/12/08 16:04:56;;;;;;;29.77;9.87;;;;;;;;;;10496762;28;20039;-75
2022/12/08 16:10:29;;;;;;;24.17;8.80;;;;;;;;;;10505434;28;20040;-75
2022/12/08 16:15:56;;;;;;;28.20;10.60;;;;;;;;;;10516027;28;20085;-75
2022/12/08 16:21:04;;;;;;;25.65;8.60;;;;;;;;;;10513583;28;20197;-75
2022/12/08 16:26:31;;;;;;;30.10;10.30;;;;;;;;;;10512279;28;20032;-77
2022/12/08 16:31:55;;;;;;;35.08;14.35;;;;;;;;;;10518221;28;20042;-76
2022/12/08 16:36:58;;;;;;;23.87;8.97;;;;;;;;;;10496341;28;20469;-76
2022/12/08 16:47:35;;;;;;;28.52;11.05;;;;;;;;;;10438561;28;20480;-75
2022/12/08 16:52:45;;;;;;;27.42;11.02;;;;;;;;;;10489639;28;20123;-75
2022/12/08 16:57:52;;;;;;;29.88;11.00;;;;;;;;;;10493130;28;20039;-76
2022/12/08 17:02:58;;;;;;;25.15;10.32;;;;;;;;;;10513096;28;20035;-75
2022/12/08 17:08:01;;;;;;;30.58;10.13;;;;;;;;;;10512829;28;20075;-75
2022/12/08 17:13:06;;;;;;;25.42;8.90;;;;;;;;;;10492728;28;20051;-76
2022/12/08 17:18:09;;;;;;;23.42;8.65;;;;;;;;;;10514321;28;20113;-75
2022/12/08 17:23:12;;;;;;;25.50;9.30;;;;;;;;;;10518483;28;20333;-77
2022/12/08 17:28:17;;;;;;;25.03;7.90;;;;;;;;;;10501767;28;20048;-75
2022/12/08 17:33:40;;;;;;;25.25;8.45;;;;;;;;;;10516351;28;20063;-73
2022/12/08 17:38:43;;;;;;;29.43;8.40;;;;;;;;;;10502680;28;20052;-76
2022/12/08 17:43:50;;;;;;;22.77;9.43;;;;;;;;;;10502283;28;20068;-75
2022/12/08 17:48:54;;;;;;;24.25;7.50;;;;;;;;;;10498308;28;20483;-76
2022/12/08 17:53:57;;;;;;;22.55;7.22;;;;;;;;;;10490670;28;20146;-75
2022/12/08 17:59:16;;;;;;;26.73;8.45;;;;;;;;;;10491378;28;20814;-76
2022/12/08 18:04:20;;;;;;;22.67;7.57;;;;;;;;;;10505074;28;20510;-75
2022/12/08 18:09:23;;;;;;;;;;;;;;;;;;10502880;28;20036;-74
2022/12/08 18:14:26;;;;;;;23.87;9.63;;;;;;;;;;10501722;28;19920;-75
2022/12/08 18:19:30;;;;;;;29.20;10.43;;;;;;;;;;10503028;28;20050;-76
2022/12/08 18:24:33;;;;;;;;;;;;;;;;;;10490184;28;20559;-74
2022/12/08 18:29:37;;;;;;;24.33;8.20;;;;;;;;;;10509756;28;20270;-75
2022/12/08 18:34:41;;;;;;;29.02;8.05;;;;;;;;;;10501560;28;20041;-74
2022/12/08 18:39:45;;;;;;;22.97;7.30;;;;;;;;;;10501434;28;20040;-75
2022/12/08 18:44:49;;;;;;;20.80;7.65;;;;;;;;;;10494651;28;20036;-74
2022/12/08 18:49:53;;;;;;;28.10;9.17;;;;;;;;;;10495142;28;20051;-75
2022/12/08 18:54:57;;;;;;;20.13;8.10;;;;;;;;;;10509907;28;20039;-75
2022/12/08 19:00:10;;;;;;;25.17;7.83;;;;;;;;;;10508831;28;20108;-75
2022/12/08 19:05:15;;;;;;;25.23;8.17;;;;;;;;;;10514557;28;20035;-76
2022/12/08 19:10:18;;;;;;;27.20;8.23;;;;;;;;;;10512917;28;20044;-74
2022/12/08 19:15:22;;;;;;;31.90;11.70;;;;;;;;;;10490586;28;20048;-75
2022/12/08 19:20:26;;;;;;;31.07;11.03;;;;;;;;;;10493451;28;20032;-75
2022/12/08 19:25:29;;;;;;;35.47;12.30;;;;;;;;;;10500034;28;20488;-75
2022/12/08 19:30:33;;;;;;;35.20;11.37;;;;;;;;;;10500755;28;20433;-75
2022/12/08 19:35:38;;;;;;;35.80;11.67;;;;;;;;;;10499085;28;20490;-76
2022/12/08 19:46:02;;;;;;;40.00;11.87;;;;;;;;;;10518747;28;20048;-76
2022/12/08 19:51:09;;;;;;;43.47;14.47;;;;;;;;;;10519623;28;20790;-76
2022/12/08 19:56:12;;;;;;;45.10;13.53;;;;;;;;;;10518354;28;20815;-76
2022/12/08 20:01:16;;;;;;;43.93;12.47;;;;;;;;;;10520911;28;20048;-74
2022/12/08 20:06:23;;;;;;;37.27;11.90;;;;;;;;;;10521580;28;20153;-75
2022/12/08 20:11:26;;;;;;;42.47;12.50;;;;;;;;;;10507207;28;20234;-76
2022/12/08 20:16:30;;;;;;;35.50;11.98;;;;;;;;;;10516705;28;20485;-75
2022/12/08 20:21:35;;;;;;;34.40;12.00;;;;;;;;;;10499568;28;20048;-76
2022/12/08 20:26:38;;;;;;;34.40;10.93;;;;;;;;;;10511626;28;20493;-76
2022/12/08 20:31:48;;;;;;;30.90;9.37;;;;;;;;;;10486828;28;20155;-76
2022/12/08 20:36:55;;;;;;;47.27;14.43;;;;;;;;;;10515131;28;20123;-75
2022/12/08 20:41:59;;;;;;;46.67;14.07;;;;;;;;;;10510093;28;20549;-75
2022/12/08 20:47:02;;;;;;;33.57;11.37;;;;;;;;;;10513166;28;20131;-75
2022/12/08 20:52:08;;;;;;;46.63;13.97;;;;;;;;;;10520246;28;20040;-74
2022/12/08 20:57:11;;;;;;;19.43;7.33;;;;;;;;;;10514383;28;20048;-76
2022/12/08 21:02:13;;;;;;;28.23;9.97;;;;;;;;;;10497330;28;20804;-75
2022/12/08 21:07:18;;;;;;;27.30;9.40;;;;;;;;;;10492963;28;20096;-76
2022/12/08 21:12:21;;;;;;;28.80;9.80;;;;;;;;;;10494954;28;20592;-75
2022/12/08 21:17:24;;;;;;;21.57;8.13;;;;;;;;;;10518263;28;20047;-75
2022/12/08 21:22:29;;;;;;;27.87;9.80;;;;;;;;;;10514945;28;20039;-75
2022/12/08 21:27:32;;;;;;;24.63;9.03;;;;;;;;;;10497815;28;20052;-76
2022/12/08 21:32:34;;;;;;;23.47;7.93;;;;;;;;;;10501401;28;20378;-76
2022/12/08 21:37:38;;;;;;;;;;;;;;;;;;10494425;28;20136;-75
2022/12/08 21:42:44;;;;;;;24.07;7.50;;;;;;;;;;10513287;28;19932;-77
2022/12/08 21:47:49;;;;;;;20.63;8.47;;;;;;;;;;10481546;28;20120;-76
2022/12/08 21:52:52;;;;;;;6.80;2.83;;;;;;;;;;10496218;28;20105;-76
2022/12/08 21:57:59;;;;;;;19.53;8.80;;;;;;;;;;10512550;28;20032;-75
2022/12/08 22:03:03;;;;;;;6.53;2.77;;;;;;;;;;10512134;28;20052;-74
2022/12/08 22:08:06;;;;;;;30.70;10.60;;;;;;;;;;10494040;28;20039;-75
2022/12/08 22:13:16;;;;;;;18.33;6.57;;;;;;;;;;10512478;28;20091;-75
2022/12/08 22:18:21;;;;;;;24.37;9.50;;;;;;;;;;10510911;28;20456;-75
2022/12/08 22:23:25;;;;;;;11.03;4.40;;;;;;;;;;10506374;28;20036;-74
2022/12/08 22:28:31;;;;;;;21.40;8.50;;;;;;;;;;10509198;28;20048;-75
2022/12/08 22:33:34;;;;;;;30.20;10.33;;;;;;;;;;10506651;28;20047;-76
2022/12/08 22:38:39;;;;;;;38.15;12.50;;;;;;;;;;10489518;28;20127;-74
2022/12/08 22:43:43;;;;;;;30.15;11.32;;;;;;;;;;10512351;28;20486;-75
2022/12/08 22:48:46;;;;;;;31.17;11.10;;;;;;;;;;10509216;28;20410;-76
2022/12/08 22:53:50;;;;;;;37.90;12.77;;;;;;;;;;10513175;28;20627;-75
2022/12/08 22:58:55;;;;;;;35.50;12.35;;;;;;;;;;10488973;28;20086;-75
2022/12/08 23:03:58;;;;;;;35.40;11.90;;;;;;;;;;10515114;28;20046;-75
2022/12/08 23:09:02;;;;;;;27.73;11.38;;;;;;;;;;10498302;28;20047;-74
2022/12/08 23:14:07;;;;;;;36.23;13.43;;;;;;;;;;10523080;28;20111;-74
2022/12/08 23:19:10;;;;;;;;;;;;;;;;;;10502745;28;20040;-75
2022/12/08 23:24:19;;;;;;;32.53;12.33;;;;;;;;;;10518520;28;19959;-76
2022/12/08 23:29:28;;;;;;;37.00;14.43;;;;;;;;;;10506647;28;20289;-75
2022/12/08 23:34:34;;;;;;;40.17;14.30;;;;;;;;;;10496566;28;20047;-75
2022/12/08 23:39:38;;;;;;;47.03;15.07;;;;;;;;;;10511976;28;20096;-75
2022/12/08 23:44:43;;;;;;;42.67;13.20;;;;;;;;;;10496543;28;20094;-74
2022/12/08 23:49:46;;;;;;;38.50;13.23;;;;;;;;;;10517967;28;20124;-75
2022/12/08 23:54:49;;;;;;;39.33;14.80;;;;;;;;;;10497606;28;20046;-75
2022/12/08 23:59:54;;;;;;;35.40;13.38;;;;;;;;;;10515529;28;20118;-75
